createdAt,value
2022-11-25T00:02:12.953Z,12.47
2022-11-25T00:07:15.524Z,12.45
2022-11-25T00:12:22.884Z,12.46
2022-11-25T00:17:24.765Z,12.45
2022-11-25T00:22:26.657Z,12.51
2022-11-25T00:27:28.524Z,12.60
2022-11-25T00:32:33.067Z,12.62
2022-11-25T00:37:34.944Z,12.54
2022-11-25T00:42:58.433Z,12.56
2022-11-25T00:48:07.073Z,12.66
2022-11-25T00:53:09.153Z,12.72
2022-11-25T00:58:11.032Z,12.70
2022-11-25T01:03:13.838Z,12.75
2022-11-25T01:08:15.815Z,12.78
2022-11-25T01:13:17.698Z,12.91
2022-11-25T01:18:19.675Z,13.01
2022-11-25T01:23:21.661Z,13.07
2022-11-25T01:28:23.539Z,13.12
2022-11-25T01:33:28.298Z,13.17
2022-11-25T01:38:30.472Z,13.20
2022-11-25T01:43:32.658Z,13.18
2022-11-25T01:48:40.068Z,13.13
2022-11-25T01:53:42.259Z,13.16
2022-11-25T01:58:46.190Z,13.27
2022-11-25T02:03:50.831Z,13.29
2022-11-25T02:08:55.479Z,13.35
2022-11-25T02:13:58.590Z,13.36
2022-11-25T02:19:03.744Z,13.32
2022-11-25T02:24:12.076Z,13.27
2022-11-25T02:29:14.464Z,13.28
2022-11-25T02:34:16.754Z,13.31
2022-11-25T02:39:19.342Z,13.31
2022-11-25T02:44:21.838Z,13.30
2022-11-25T02:49:23.822Z,13.32
2022-11-25T02:54:26.426Z,13.32
2022-11-25T02:59:28.298Z,13.35
2022-11-25T03:04:31.304Z,13.33
2022-11-25T03:09:33.180Z,13.32
2022-11-25T03:14:35.226Z,13.38
2022-11-25T03:19:37.349Z,13.40
2022-11-25T03:24:39.147Z,13.38
2022-11-25T03:29:41.113Z,13.38
2022-11-25T03:34:43.333Z,13.42
2022-11-25T03:39:45.872Z,13.44
2022-11-25T03:44:47.876Z,13.46
2022-11-25T03:49:49.902Z,13.46
2022-11-25T03:54:52.147Z,13.52
2022-11-25T03:59:56.687Z,13.65
2022-11-25T04:04:58.752Z,13.70
2022-11-25T04:10:00.651Z,13.71
2022-11-25T04:15:04.378Z,13.72
2022-11-25T04:20:07.476Z,13.73
2022-11-25T04:25:09.975Z,13.72
2022-11-25T04:30:12.476Z,13.71
2022-11-25T04:35:15.568Z,13.73
2022-11-25T04:40:20.667Z,13.77
2022-11-25T04:45:26.612Z,13.85
2022-11-25T04:50:30.434Z,13.89
2022-11-25T04:55:40.307Z,13.96
2022-11-25T05:00:46.773Z,13.96
2022-11-25T05:05:49.487Z,13.99
2022-11-25T05:10:52.434Z,13.98
2022-11-25T05:15:54.510Z,13.93
2022-11-25T05:21:00.965Z,13.95
2022-11-25T05:26:04.584Z,13.89
2022-11-25T05:31:14.725Z,13.85
2022-11-25T05:36:18.485Z,13.88
2022-11-25T05:41:21.895Z,13.89
2022-11-25T05:46:25.879Z,13.88
2022-11-25T05:51:30.578Z,13.97
2022-11-25T05:56:34.641Z,13.96
2022-11-25T06:01:55.018Z,13.93
2022-11-25T06:06:56.822Z,13.96
2022-11-25T06:11:58.876Z,14.00
2022-11-25T06:17:01.073Z,14.03
2022-11-25T06:22:09.701Z,14.09
2022-11-25T06:27:11.790Z,13.98
2022-11-25T06:32:13.948Z,14.03
2022-11-25T06:37:36.127Z,14.07
2022-11-25T06:42:38.260Z,14.11
2022-11-25T06:47:40.138Z,14.26
2022-11-25T06:52:41.975Z,14.34
2022-11-25T06:57:43.786Z,14.39
2022-11-25T07:02:48.691Z,14.47
2022-11-25T07:07:50.909Z,14.53
2022-11-25T07:12:53.178Z,14.56
2022-11-25T07:17:54.990Z,14.59
2022-11-25T07:22:56.819Z,14.62
2022-11-25T07:27:59.945Z,14.69
2022-11-25T07:33:01.965Z,14.75
2022-11-25T07:38:03.955Z,14.85
2022-11-25T07:43:05.894Z,14.96
2022-11-25T07:48:07.736Z,15.01
2022-11-25T07:53:09.649Z,15.01
2022-11-25T07:58:11.526Z,15.01
2022-11-25T08:03:13.452Z,14.99
2022-11-25T08:08:15.387Z,15.06
2022-11-25T08:13:17.366Z,15.17
2022-11-25T08:18:19.366Z,15.32
2022-11-25T08:23:21.148Z,15.49
2022-11-25T08:28:23.288Z,15.54
2022-11-25T08:33:25.099Z,15.61
2022-11-25T08:38:27.983Z,15.63
2022-11-25T08:43:30.088Z,15.74
2022-11-25T08:48:33.390Z,15.97
2022-11-25T08:53:35.773Z,16.16
2022-11-25T08:58:37.732Z,16.19
2022-11-25T09:03:42.293Z,16.35
2022-11-25T09:08:45.056Z,16.48
2022-11-25T09:13:46.958Z,16.52
2022-11-25T09:18:55.291Z,16.59
2022-11-25T09:23:57.567Z,16.64
2022-11-25T09:28:59.496Z,16.62
2022-11-25T09:34:01.375Z,16.71
2022-11-25T09:39:03.763Z,16.82
2022-11-25T09:44:31.622Z,16.90
2022-11-25T09:49:40.215Z,17.04
2022-11-25T09:54:44.482Z,17.07
2022-11-25T09:59:50.766Z,17.12
2022-11-25T10:04:57.422Z,17.26
2022-11-25T10:10:01.511Z,17.34
2022-11-25T10:15:06.521Z,17.37
2022-11-25T10:20:15.119Z,17.21
2022-11-25T10:25:27.590Z,17.18
2022-11-25T10:30:52.807Z,17.27
2022-11-25T10:35:57.724Z,17.34
2022-11-25T10:41:00.737Z,17.45
2022-11-25T10:46:02.481Z,17.54
2022-11-25T10:51:23.161Z,17.52
2022-11-25T10:56:24.971Z,17.50
2022-11-25T11:01:26.826Z,17.45
2022-11-25T11:06:38.703Z,17.51
2022-11-25T11:11:47.549Z,17.57
2022-11-25T11:16:53.950Z,17.67
2022-11-25T11:21:56.630Z,17.74
2022-11-25T11:27:20.795Z,17.74
2022-11-25T11:32:24.066Z,17.73
2022-11-25T11:37:31.940Z,17.75
2022-11-25T11:43:06.001Z,17.87
2022-11-25T11:48:14.019Z,17.92
2022-11-25T11:53:15.997Z,17.97
2022-11-25T11:58:26.992Z,18.02
2022-11-25T12:03:29.743Z,18.03
2022-11-25T12:08:41.089Z,18.06
2022-11-25T12:13:57.867Z,18.02
2022-11-25T12:19:06.766Z,17.95
2022-11-25T12:24:14.354Z,17.92
2022-11-25T12:29:20.340Z,17.87
2022-11-25T12:34:22.109Z,17.85
2022-11-25T12:39:37.634Z,17.88
2022-11-25T12:44:54.465Z,17.96
2022-11-25T12:49:57.264Z,17.98
2022-11-25T12:55:19.019Z,18.06
2022-11-25T13:00:41.213Z,18.07
2022-11-25T13:05:50.141Z,18.02
2022-11-25T13:10:55.121Z,17.93
2022-11-25T13:15:59.509Z,17.94
2022-11-25T13:21:09.749Z,17.99
2022-11-25T13:26:32.031Z,18.07
2022-11-25T13:31:35.145Z,18.04
2022-11-25T13:36:50.855Z,18.03
2022-11-25T13:42:03.896Z,18.08
2022-11-25T13:48:53.292Z,17.74
2022-11-25T13:54:01.825Z,18.10
2022-11-25T13:59:48.664Z,18.01
2022-11-25T14:05:09.331Z,17.98
2022-11-25T14:10:22.013Z,17.94
2022-11-25T14:15:23.785Z,18.02
2022-11-25T14:20:32.283Z,18.06
2022-11-25T14:25:43.526Z,18.06
2022-11-25T14:30:53.627Z,18.01
2022-11-25T14:36:02.191Z,17.91
2022-11-25T14:41:13.427Z,17.90
2022-11-25T14:46:25.362Z,17.79
2022-11-25T14:51:34.168Z,17.73
2022-11-25T14:56:37.067Z,17.58
2022-11-25T15:01:40.205Z,17.53
2022-11-25T15:06:48.712Z,17.54
2022-11-25T15:11:57.605Z,17.52
2022-11-25T15:17:00.259Z,17.54
2022-11-25T15:27:28.813Z,17.48
2022-11-25T15:32:37.685Z,17.51
2022-11-25T15:37:39.593Z,17.48
2022-11-25T15:42:42.366Z,17.54
2022-11-25T15:47:44.998Z,17.59
2022-11-25T15:52:51.361Z,17.58
2022-11-25T15:57:54.533Z,17.61
2022-11-25T16:02:57.958Z,17.60
2022-11-25T16:08:24.406Z,17.61
2022-11-25T16:13:33.987Z,17.63
2022-11-25T16:19:03.411Z,17.60
2022-11-25T16:24:08.003Z,17.53
2022-11-25T16:29:18.769Z,17.45
2022-11-25T16:34:24.237Z,17.43
2022-11-25T16:39:26.235Z,17.43
2022-11-25T16:44:28.953Z,17.49
2022-11-25T16:49:31.837Z,17.50
2022-11-25T16:54:34.060Z,17.45
2022-11-25T16:59:39.860Z,17.41
2022-11-25T17:04:41.845Z,17.35
2022-11-25T17:09:45.049Z,17.24
2022-11-25T17:14:48.506Z,17.15
2022-11-25T17:19:50.809Z,17.13
2022-11-25T17:24:52.733Z,17.12
2022-11-25T17:29:57.302Z,17.21
2022-11-25T17:34:59.567Z,17.20
2022-11-25T17:40:01.348Z,17.23
2022-11-25T17:45:03.609Z,17.19
2022-11-25T17:50:22.594Z,17.17
2022-11-25T17:55:24.452Z,17.14
2022-11-25T18:00:26.350Z,17.11
2022-11-25T18:05:28.741Z,17.08
2022-11-25T18:10:30.663Z,17.11
2022-11-25T18:15:34.141Z,17.13
2022-11-25T18:20:36.019Z,17.14
2022-11-25T18:25:39.931Z,17.04
2022-11-25T18:30:41.846Z,16.94
2022-11-25T18:35:45.361Z,16.85
2022-11-25T18:40:51.986Z,16.82
2022-11-25T18:45:55.768Z,16.84
2022-11-25T18:50:57.760Z,16.78
2022-11-25T18:55:59.656Z,16.65
2022-11-25T19:01:10.901Z,16.66
2022-11-25T19:06:17.436Z,16.64
2022-11-25T19:11:31.162Z,16.66
2022-11-25T19:16:33.030Z,16.65
2022-11-25T19:21:34.918Z,16.65
2022-11-25T19:26:42.421Z,16.66
2022-11-25T19:31:44.460Z,16.62
2022-11-25T19:36:46.252Z,16.58
2022-11-25T19:41:48.397Z,16.61
2022-11-25T19:47:14.230Z,16.63
2022-11-25T19:52:27.905Z,16.62
2022-11-25T19:57:29.685Z,16.60
2022-11-25T20:02:31.682Z,16.52
2022-11-25T20:07:34.683Z,16.46
2022-11-25T20:12:36.468Z,16.49
2022-11-25T20:17:41.218Z,16.49
2022-11-25T20:22:55.995Z,16.44
2022-11-25T20:27:57.736Z,16.42
2022-11-25T20:32:59.490Z,16.43
2022-11-25T20:38:01.572Z,16.42
2022-11-25T20:43:03.370Z,16.40
2022-11-25T20:48:11.282Z,16.37
2022-11-25T20:53:19.561Z,16.39
2022-11-25T20:58:31.050Z,16.40
2022-11-25T21:03:32.992Z,16.46
2022-11-25T21:08:34.724Z,16.51
2022-11-25T21:13:36.667Z,16.54
2022-11-25T21:18:39.050Z,16.46
2022-11-25T21:23:40.970Z,16.44
2022-11-25T21:28:45.589Z,16.35
2022-11-25T21:33:48.226Z,16.31
2022-11-25T21:38:52.972Z,16.29
2022-11-25T21:43:55.105Z,16.18
2022-11-25T21:48:56.929Z,16.04
2022-11-25T21:53:58.695Z,15.88
2022-11-25T21:59:02.894Z,15.67
2022-11-25T22:04:04.804Z,15.48
2022-11-25T22:09:06.622Z,15.37
2022-11-25T22:14:39.443Z,15.18
2022-11-25T22:19:41.527Z,15.02
2022-11-25T22:24:43.816Z,14.85
2022-11-25T22:29:45.726Z,14.78
2022-11-25T22:34:47.481Z,14.72
2022-11-25T22:39:49.573Z,14.65
2022-11-25T22:44:52.419Z,14.57
2022-11-25T22:49:54.425Z,14.49
2022-11-25T22:55:00.095Z,14.46
2022-11-25T23:00:01.851Z,14.40
2022-11-25T23:05:13.283Z,14.27
2022-11-25T23:10:27.173Z,14.20
2022-11-25T23:15:29.436Z,14.18
2022-11-25T23:20:32.564Z,14.21
2022-11-25T23:25:34.293Z,14.19
2022-11-25T23:36:24.879Z,13.07
2022-11-25T23:41:39.649Z,13.98
2022-11-25T23:46:42.106Z,14.06
2022-11-25T23:51:43.925Z,14.07
2022-11-25T23:56:45.729Z,14.04
